Time;durP1;ratioP1;P1;durP2;ratioP2;P2;SDS_P1;SDS_P2;PMS_P1;PMS_P2;Temp;Humidity;BMP_temperature;BMP_pressure;BME280_temperature;BME280_humidity;BME280_pressure;Samples;Min_cycle;Max_cycle;Signal;HPM_P1;HPM_P2
2022/05/14 00:00:35;;;;;;;8.77;4.40;;;;;;;17.22;60.05;100282.41;5030934;28;20037;-72
2022/05/14 00:03:00;;;;;;;8.57;4.50;;;;;;;17.19;60.01;100251.06;5013113;28;20049;-73
2022/05/14 00:05:26;;;;;;;9.10;4.07;;;;;;;17.42;59.88;100285.13;4979155;28;20029;-73
2022/05/14 00:07:52;;;;;;;9.23;3.88;;;;;;;17.12;60.14;100291.91;5030319;28;20072;-74
2022/05/14 00:13:40;;;;;;;8.10;4.13;;;;;;;17.40;61.76;100286.84;5025691;22;20882;-73
2022/05/14 00:16:07;;;;;;;7.97;3.92;;;;;;;17.52;60.87;100282.56;4971823;28;20414;-72
2022/05/14 00:18:33;;;;;;;7.40;4.20;;;;;;;17.53;61.97;100282.56;4971820;28;20030;-73
2022/05/14 00:20:59;;;;;;;6.47;3.63;;;;;;;17.53;61.12;100279.09;4972096;28;20093;-73
2022/05/14 00:23:25;;;;;;;9.60;3.85;;;;;;;17.44;59.84;100264.25;4954563;28;20121;-73
2022/05/14 00:25:51;;;;;;;9.63;4.40;;;;;;;17.20;59.93;100252.81;4972046;28;20046;-73
2022/05/14 00:28:17;;;;;;;8.85;4.40;;;;;;;17.32;59.85;100272.91;4971547;28;20027;-73
2022/05/14 00:30:43;;;;;;;11.30;4.25;;;;;;;17.36;60.62;100277.28;4971485;28;20058;-73
2022/05/14 00:33:09;;;;;;;12.60;4.43;;;;;;;17.26;60.60;100263.28;4971971;28;20109;-72
2022/05/14 00:35:35;;;;;;;7.63;4.25;;;;;;;17.15;61.17;100264.97;4954567;28;20035;-74
2022/05/14 00:38:01;;;;;;;6.32;3.80;;;;;;;16.91;61.69;100266.53;4971885;28;20034;-73
2022/05/14 00:40:30;;;;;;;8.40;4.00;;;;;;;16.60;62.39;100266.25;4971972;28;20449;-73
2022/05/14 00:42:55;;;;;;;12.55;5.93;;;;;;;15.75;64.46;100277.44;4971285;28;20029;-75
2022/05/14 00:45:22;;;;;;;12.77;5.60;;;;;;;15.90;64.03;100272.47;4971745;28;20031;-73
2022/05/14 00:47:50;;;;;;;10.85;5.60;;;;;;;15.74;64.32;100270.47;4971846;28;20405;-73
2022/05/14 00:50:37;;;;;;;14.40;5.67;;;;;;;15.57;65.59;100275.50;4971777;28;20142;-73
2022/05/14 00:53:17;;;;;;;10.30;5.22;;;;;;;15.39;66.40;100278.69;4971377;28;20294;-74
2022/05/14 00:55:46;;;;;;;12.43;4.95;;;;;;;15.42;66.75;100277.00;4971287;28;20588;-73
2022/05/14 00:58:29;;;;;;;8.77;4.60;;;;;;;15.40;66.77;100264.84;4971664;28;20026;-73
2022/05/14 01:00:54;;;;;;;9.35;4.60;;;;;;;15.44;66.81;100282.22;4975523;28;20057;-72
2022/05/14 01:03:21;;;;;;;7.72;4.50;;;;;;;15.31;66.49;100240.44;4975276;28;20054;-73
2022/05/14 01:05:47;;;;;;;11.02;4.72;;;;;;;15.61;66.13;100274.66;4975334;28;20027;-73
2022/05/14 01:08:12;;;;;;;12.10;4.78;;;;;;;15.65;65.67;100269.53;4975093;28;20464;-73
2022/05/14 01:10:42;;;;;;;8.43;4.80;;;;;;;15.71;65.49;100275.66;4975083;28;20027;-73
2022/05/14 01:13:09;;;;;;;12.10;4.70;;;;;;;15.60;64.34;100255.59;4974941;28;20051;-72
2022/05/14 01:15:48;;;;;;;6.78;3.92;;;;;;;15.74;63.90;100266.16;4975050;28;20122;-72
2022/05/14 01:18:14;;;;;;;11.35;4.40;;;;;;;15.73;64.18;100263.56;4987138;28;20026;-72
2022/05/14 01:20:40;;;;;;;9.10;4.72;;;;;;;15.69;63.82;100262.63;4994060;28;20412;-73
2022/05/14 01:23:12;;;;;;;10.98;4.22;;;;;;;15.65;63.93;100258.22;4994348;28;20067;-73
2022/05/14 01:28:46;;;;;;;8.90;4.30;;;;;;;15.81;62.76;100262.78;4974693;28;20053;-72
2022/05/14 01:31:11;;;;;;;8.25;4.07;;;;;;;15.71;62.69;100247.03;4974890;28;20266;-73
2022/05/14 01:33:37;;;;;;;6.63;4.20;;;;;;;15.77;62.87;100265.31;4974639;28;20031;-72
2022/05/14 01:36:08;;;;;;;8.10;3.97;;;;;;;15.67;62.82;100260.00;4974758;28;20031;-73
2022/05/14 01:38:33;;;;;;;7.60;4.28;;;;;;;15.55;63.45;100257.22;4974326;28;20157;-73
2022/05/14 01:40:59;;;;;;;5.68;3.70;;;;;;;15.46;63.82;100264.94;4974444;28;20109;-74
2022/05/14 01:43:25;;;;;;;9.07;4.68;;;;;;;15.48;64.14;100253.69;4973937;28;20050;-73
2022/05/14 01:45:51;;;;;;;8.35;4.00;;;;;;;15.62;63.62;100260.81;4974140;28;20031;-73
2022/05/14 01:48:17;;;;;;;8.02;4.53;;;;;;;15.64;63.32;100259.97;4988335;28;20030;-73
2022/05/14 01:50:43;;;;;;;8.98;4.10;;;;;;;15.52;63.70;100259.81;4993424;28;20409;-74
2022/05/14 01:53:08;;;;;;;7.22;4.40;;;;;;;15.58;63.74;100254.69;4978152;28;20030;-74
2022/05/14 01:55:34;;;;;;;8.50;4.10;;;;;;;15.63;63.85;100259.94;4974121;28;20034;-72
2022/05/14 01:58:00;;;;;;;7.95;3.88;;;;;;;15.48;63.38;100216.41;4974052;28;20030;-72
2022/05/14 02:00:26;;;;;;;9.15;4.20;;;;;;;15.41;63.38;100204.16;4973979;28;20033;-76
2022/05/14 02:02:53;;;;;;;7.82;3.50;;;;;;;15.39;63.66;100211.06;4975231;28;20088;-74
2022/05/14 02:05:19;;;;;;;8.90;4.43;;;;;;;15.38;64.25;100220.59;4962843;28;20093;-73
2022/05/14 02:07:45;;;;;;;8.30;4.10;;;;;;;15.43;64.78;100257.09;4980812;28;20446;-74
2022/05/14 02:10:11;;;;;;;8.52;4.65;;;;;;;15.18;64.99;100218.59;4972929;28;20516;-71
2022/05/14 02:12:37;;;;;;;8.30;3.92;;;;;;;15.18;65.34;100239.41;4972693;28;20050;-73
2022/05/14 02:15:04;;;;;;;9.25;4.28;;;;;;;15.23;65.42;100252.47;4973779;28;20109;-74
2022/05/14 02:17:29;;;;;;;6.38;4.10;;;;;;;14.94;65.56;100211.34;4973739;28;20037;-75
2022/05/14 02:19:55;;;;;;;8.30;4.75;;;;;;;14.99;65.64;100237.38;4973791;28;20549;-72
2022/05/14 02:22:21;;;;;;;8.80;4.90;;;;;;;14.86;66.91;100265.78;4973794;28;20038;-73
2022/05/14 02:24:46;;;;;;;6.78;4.20;;;;;;;14.64;66.99;100250.66;4956376;28;20027;-69
2022/05/14 02:27:12;;;;;;;7.90;4.72;;;;;;;14.50;68.60;100266.00;4973585;28;20069;-72
2022/05/14 02:29:54;;;;;;;7.78;4.13;;;;;;;14.30;69.54;100255.25;4973595;28;20483;-72
2022/05/14 02:32:23;;;;;;;7.20;3.92;;;;;;;14.14;70.64;100251.50;4973456;28;20066;-76
2022/05/14 02:34:48;;;;;;;8.15;4.35;;;;;;;13.75;70.78;100204.91;4973767;28;20045;-72
2022/05/14 02:37:17;;;;;;;7.38;4.00;;;;;;;13.99;71.04;100255.53;4973599;28;20031;-70
2022/05/14 02:39:43;;;;;;;7.57;4.10;;;;;;;13.89;71.69;100267.50;4972909;28;20512;-73
2022/05/14 02:42:08;;;;;;;7.15;4.45;;;;;;;13.35;71.60;100180.75;4973655;28;20031;-73
2022/05/14 02:44:34;;;;;;;12.20;5.10;;;;;;;13.89;71.48;100257.13;4955822;28;20027;-72
2022/05/14 02:47:00;;;;;;;9.15;4.88;;;;;;;14.05;71.53;100260.84;4973089;28;20085;-73
2022/05/14 02:49:25;;;;;;;10.70;5.40;;;;;;;14.21;70.98;100259.44;4973130;28;20027;-73
2022/05/14 02:51:51;;;;;;;10.02;5.20;;;;;;;14.33;70.89;100270.88;4972921;28;20034;-73
2022/05/14 02:54:16;;;;;;;9.48;5.18;;;;;;;13.81;72.07;100268.19;4972802;28;20027;-72
2022/05/14 02:56:41;;;;;;;10.73;5.55;;;;;;;13.79;72.31;100244.78;4973041;28;20022;-72
2022/05/14 02:59:07;;;;;;;7.90;5.05;;;;;;;14.09;71.02;100261.78;4955753;28;20023;-72
2022/05/14 03:01:33;;;;;;;10.82;5.80;;;;;;;14.33;70.29;100261.41;4973137;28;20025;-73
2022/05/14 03:04:00;;;;;;;9.38;5.70;;;;;;;14.39;69.36;100240.72;4972876;28;20036;-73
2022/05/14 03:06:25;;;;;;;9.35;5.22;;;;;;;14.50;67.76;100246.09;4972977;28;20413;-73
2022/05/14 03:08:51;;;;;;;10.05;6.30;;;;;;;14.52;67.72;100234.00;4972382;28;20022;-72
2022/05/14 03:11:17;;;;;;;13.38;6.30;;;;;;;14.48;68.23;100258.19;4973100;28;20410;-74
2022/05/14 03:13:44;;;;;;;10.75;5.13;;;;;;;14.32;71.60;100256.19;4972658;28;20055;-72
2022/05/14 03:16:11;;;;;;;9.88;5.22;;;;;;;14.31;72.91;100260.47;4972889;28;20085;-73
2022/05/14 03:18:37;;;;;;;11.80;5.35;;;;;;;14.34;73.04;100270.94;4972496;28;20038;-71
2022/05/14 03:21:02;;;;;;;12.35;5.28;;;;;;;14.44;72.66;100268.50;4972405;28;20035;-73
2022/05/14 03:23:28;;;;;;;10.60;4.90;;;;;;;14.61;72.73;100276.59;4984464;28;20421;-73
2022/05/14 03:25:54;;;;;;;11.23;5.20;;;;;;;14.69;72.22;100269.81;4974486;28;20078;-72
2022/05/14 03:28:21;;;;;;;10.80;5.47;;;;;;;14.70;72.23;100275.06;4991793;28;20050;-74
2022/05/14 03:30:47;;;;;;;12.48;5.95;;;;;;;14.47;71.97;100248.66;4991890;28;20410;-72
2022/05/14 03:33:13;;;;;;;14.25;5.82;;;;;;;14.64;72.53;100271.44;4991582;28;20034;-77
2022/05/14 03:35:38;;;;;;;11.00;5.60;;;;;;;14.60;73.48;100280.91;4991538;28;20464;-73
2022/05/14 03:38:04;;;;;;;11.63;5.55;;;;;;;14.61;73.30;100267.06;4991043;28;20040;-75
2022/05/14 03:40:29;;;;;;;13.68;5.22;;;;;;;14.71;72.30;100258.59;4941434;28;20117;-74
2022/05/14 03:42:55;;;;;;;14.25;5.00;;;;;;;14.80;71.83;100283.00;4991688;28;20073;-72
2022/05/14 03:45:20;;;;;;;10.75;5.10;;;;;;;14.58;70.80;100235.84;4991358;28;20480;-72
2022/05/14 03:47:46;;;;;;;15.05;5.68;;;;;;;14.94;70.13;100270.22;4991444;28;20473;-72
2022/05/14 03:50:11;;;;;;;11.50;4.75;;;;;;;14.99;69.99;100278.97;4991421;28;20378;-73
2022/05/14 03:52:37;;;;;;;20.52;5.25;;;;;;;15.06;69.89;100272.16;4990776;28;20030;-72
2022/05/14 03:55:03;;;;;;;13.10;4.93;;;;;;;15.02;70.51;100289.44;4991390;28;20491;-71
2022/05/14 03:57:28;;;;;;;15.90;5.10;;;;;;;14.90;69.69;100284.91;4991305;28;20030;-75
2022/05/14 03:59:53;;;;;;;14.82;6.28;;;;;;;14.74;69.73;100280.31;4991767;28;20022;-73
2022/05/14 04:02:20;;;;;;;11.80;5.63;;;;;;;14.76;69.54;100291.59;4956669;28;20511;-73
2022/05/14 04:04:46;;;;;;;13.90;5.63;;;;;;;14.60;69.87;100274.84;4991264;28;20038;-75
2022/05/14 04:07:11;;;;;;;11.65;5.10;;;;;;;14.46;71.22;100270.28;4973384;28;20533;-71
2022/05/14 04:09:37;;;;;;;10.13;5.47;;;;;;;14.62;72.69;100287.00;4991144;28;20169;-71
2022/05/14 04:12:03;;;;;;;10.00;5.47;;;;;;;14.66;74.75;100274.97;4990756;28;20498;-71
2022/05/14 04:14:28;;;;;;;14.05;5.85;;;;;;;14.87;76.54;100287.47;4990989;28;20042;-76
2022/05/14 04:16:53;;;;;;;13.75;6.75;;;;;;;15.08;77.66;100307.72;4990984;28;20041;-71
2022/05/14 04:19:19;;;;;;;27.80;7.30;;;;;;;15.07;76.20;100303.38;4990855;28;20100;-71
2022/05/14 04:21:45;;;;;;;15.48;6.80;;;;;;;15.23;76.00;100320.09;4990631;28;20137;-74
2022/05/14 04:24:10;;;;;;;13.77;6.45;;;;;;;15.30;74.29;100311.53;4973727;28;20038;-75
2022/05/14 04:26:36;;;;;;;12.27;7.13;;;;;;;15.34;72.20;100315.94;4991383;28;20030;-74
2022/05/14 04:29:01;;;;;;;18.77;7.90;;;;;;;15.42;70.88;100328.19;4991078;28;20451;-74
2022/05/14 04:31:27;;;;;;;13.65;7.82;;;;;;;15.34;70.48;100308.13;4991075;28;20034;-74
2022/05/14 04:33:52;;;;;;;9.20;7.28;;;;;;;15.26;71.23;100317.53;4973841;28;20034;-74
2022/05/14 04:36:18;;;;;;;12.07;7.97;;;;;;;15.13;72.62;100319.06;4994731;28;20104;-75
2022/05/14 04:38:44;;;;;;;15.57;8.30;;;;;;;15.01;72.02;100290.28;4995064;28;20034;-74
2022/05/14 04:41:09;;;;;;;10.40;7.82;;;;;;;15.27;71.64;100323.63;4995212;28;20034;-74
2022/05/14 04:43:35;;;;;;;13.63;7.82;;;;;;;15.29;72.05;100320.19;4977306;28;20128;-74
2022/05/14 04:46:00;;;;;;;12.65;7.95;;;;;;;15.09;72.96;100285.19;4995083;28;20027;-75
2022/05/14 04:48:26;;;;;;;12.48;7.18;;;;;;;15.16;71.58;100300.03;4995058;28;20038;-73
2022/05/14 04:50:52;;;;;;;12.70;7.95;;;;;;;15.16;71.81;100324.31;4994496;28;20026;-74
2022/05/14 04:53:17;;;;;;;10.82;7.30;;;;;;;14.99;72.75;100308.47;4994560;28;20041;-75
2022/05/14 04:55:43;;;;;;;10.77;7.07;;;;;;;15.14;73.48;100314.72;4994461;28;20370;-74
2022/05/14 04:58:09;;;;;;;9.70;7.22;;;;;;;15.14;74.33;100319.94;4994723;28;20114;-71
2022/05/14 05:00:36;;;;;;;12.35;7.82;;;;;;;15.25;74.59;100323.56;4994596;28;20026;-76
2022/05/14 05:03:16;;;;;;;13.32;7.28;;;;;;;15.30;72.69;100318.44;4994249;28;20031;-74
2022/05/14 05:05:42;;;;;;;13.98;6.70;;;;;;;15.36;71.37;100324.63;4994310;28;20503;-75
2022/05/14 05:08:09;;;;;;;12.48;7.10;;;;;;;15.49;70.47;100322.22;4994594;28;20042;-72
2022/05/14 05:10:35;;;;;;;13.90;7.63;;;;;;;15.47;70.97;100321.31;4994180;28;20022;-75
2022/05/14 05:13:01;;;;;;;15.68;7.50;;;;;;;15.47;71.40;100335.19;4993757;28;20420;-72
2022/05/14 05:15:26;;;;;;;11.93;7.10;;;;;;;15.50;70.64;100329.16;4994155;28;20035;-75
2022/05/14 05:17:52;;;;;;;12.45;7.07;;;;;;;15.55;71.80;100330.09;4993948;28;20037;-74
2022/05/14 05:20:17;;;;;;;17.25;7.90;;;;;;;15.56;71.45;100329.22;4994066;28;20134;-71
2022/05/14 05:22:43;;;;;;;18.00;8.23;;;;;;;15.65;71.70;100334.59;4993983;28;20069;-72
2022/05/14 05:25:10;;;;;;;13.25;7.05;;;;;;;15.61;71.43;100317.16;4976594;28;20049;-73
2022/05/14 05:27:35;;;;;;;15.30;7.30;;;;;;;15.82;70.82;100331.38;4994016;28;20062;-74
2022/05/14 05:30:02;;;;;;;13.25;7.18;;;;;;;15.77;69.85;100312.19;4976624;28;20088;-75
2022/05/14 05:32:28;;;;;;;9.77;7.00;;;;;;;15.94;70.96;100334.13;4993519;28;20050;-75
2022/05/14 05:34:53;;;;;;;12.18;7.60;;;;;;;15.99;70.11;100327.25;4993724;28;20072;-72
2022/05/14 05:37:18;;;;;;;10.27;7.18;;;;;;;15.94;70.17;100304.63;4994060;28;20034;-75
2022/05/14 05:39:44;;;;;;;10.07;7.10;;;;;;;16.27;69.60;100324.94;4994047;28;20030;-76
2022/05/14 05:42:09;;;;;;;11.70;6.97;;;;;;;16.34;68.96;100315.50;4993773;28;20485;-74
2022/05/14 05:44:35;;;;;;;13.18;6.55;;;;;;;16.39;68.01;100287.75;4993473;28;20184;-75
2022/05/14 05:47:04;;;;;;;11.73;7.22;;;;;;;16.60;67.71;100287.09;4993317;28;20495;-74
2022/05/14 05:49:29;;;;;;;11.20;6.30;;;;;;;16.79;67.58;100300.28;4993611;28;20053;-71
2022/05/14 05:51:54;;;;;;;11.02;6.75;;;;;;;16.84;68.43;100306.41;4993652;28;20492;-74
2022/05/14 05:57:04;;;;;;;10.27;6.15;;;;;;;17.04;67.63;100308.34;4993347;28;20033;-74
2022/05/14 05:59:31;;;;;;;8.73;5.82;;;;;;;16.89;67.55;100251.72;4975840;28;20026;-74
2022/05/14 06:01:56;;;;;;;10.48;5.88;;;;;;;17.33;66.70;100294.63;4992332;28;20033;-77
2022/05/14 06:04:22;;;;;;;9.25;5.47;;;;;;;17.58;66.44;100298.25;4993206;28;20030;-76
2022/05/14 06:06:48;;;;;;;7.25;4.93;;;;;;;17.58;64.66;100285.22;4993522;28;20199;-75
2022/05/14 06:09:20;;;;;;;8.63;5.30;;;;;;;17.83;63.81;100319.28;4993394;28;20113;-75
2022/05/14 06:11:46;;;;;;;11.20;5.03;;;;;;;17.66;64.01;100311.34;4992957;28;20026;-74
2022/05/14 06:14:12;;;;;;;11.63;5.25;;;;;;;17.86;63.24;100320.16;4985570;28;20038;-74
2022/05/14 06:16:38;;;;;;;8.30;5.15;;;;;;;18.01;63.60;100324.63;4977105;28;20121;-75
2022/05/14 06:19:04;;;;;;;9.23;5.07;;;;;;;18.13;62.95;100331.66;4972538;28;20129;-76
2022/05/14 06:21:30;;;;;;;9.18;4.88;;;;;;;18.24;63.07;100319.47;4984166;28;20034;-69
2022/05/14 06:23:56;;;;;;;8.80;5.20;;;;;;;18.24;63.11;100295.97;4992335;28;20026;-74
2022/05/14 06:26:22;;;;;;;9.43;5.38;;;;;;;18.47;62.11;100325.63;4992944;28;20065;-74
2022/05/14 06:28:47;;;;;;;8.45;5.05;;;;;;;18.25;63.43;100287.22;4993147;28;20022;-71
2022/05/14 06:31:18;;;;;;;9.02;5.22;;;;;;;18.50;63.47;100312.56;4992977;28;20030;-74
2022/05/14 06:33:48;;;;;;;9.75;5.70;;;;;;;18.64;62.97;100317.81;4975673;28;20112;-73
2022/05/14 06:36:15;;;;;;;11.25;4.85;;;;;;;18.86;63.38;100329.16;4975502;28;20036;-74
2022/05/14 06:38:41;;;;;;;7.05;4.75;;;;;;;19.07;62.63;100328.34;4992516;28;20034;-74
2022/05/14 06:41:13;;;;;;;7.25;4.60;;;;;;;19.11;62.83;100329.22;4992754;28;20033;-75
2022/05/14 06:43:39;;;;;;;12.07;5.07;;;;;;;19.16;62.66;100330.06;4992829;28;20030;-72
2022/05/14 06:46:05;;;;;;;10.27;4.80;;;;;;;19.25;62.73;100322.19;4987904;28;20081;-74
2022/05/14 06:48:31;;;;;;;10.75;4.97;;;;;;;19.28;60.52;100337.03;4981559;28;20117;-73
2022/05/14 06:51:00;;;;;;;7.82;4.25;;;;;;;19.17;60.49;100329.22;4973036;28;20023;-74
2022/05/14 06:53:28;;;;;;;13.02;4.75;;;;;;;19.19;59.90;100302.16;4972761;28;20037;-71
2022/05/14 06:55:56;;;;;;;8.77;4.47;;;;;;;19.27;60.77;100314.38;4982067;28;20564;-74
2022/05/14 06:58:32;;;;;;;10.18;4.30;;;;;;;19.48;60.58;100337.88;4983700;28;20089;-74
2022/05/14 07:00:58;;;;;;;10.50;4.88;;;;;;;19.59;59.66;100336.97;4992467;28;20097;-74
2022/05/14 07:08:53;;;;;;;7.60;4.90;;;;;;;19.85;58.42;100335.22;4992379;28;20041;-73
2022/05/14 07:11:18;;;;;;;10.45;5.03;;;;;;;19.91;58.52;100344.78;4974548;28;20034;-73
2022/05/14 07:13:44;;;;;;;12.68;5.68;;;;;;;19.89;58.18;100341.31;4991739;28;20058;-74
2022/05/14 07:16:10;;;;;;;8.02;5.30;;;;;;;19.95;57.88;100338.66;4992095;28;20042;-73
2022/05/14 07:18:35;;;;;;;9.00;5.80;;;;;;;20.00;58.02;100336.00;4983204;28;20037;-72
2022/05/14 07:21:01;;;;;;;9.98;5.70;;;;;;;20.04;58.00;100346.47;4963003;28;20074;-74
2022/05/14 07:23:26;;;;;;;13.73;7.32;;;;;;;19.80;58.34;100346.53;4972325;28;20030;-74
2022/05/14 07:25:52;;;;;;;14.80;6.70;;;;;;;19.94;58.39;100349.13;4972402;28;20031;-75
2022/05/14 07:28:17;;;;;;;12.57;7.45;;;;;;;20.04;57.82;100354.34;4972664;28;20126;-71
2022/05/14 07:30:43;;;;;;;13.27;6.95;;;;;;;20.12;57.89;100343.81;4972060;28;20031;-75
2022/05/14 07:33:09;;;;;;;11.70;7.35;;;;;;;20.28;57.50;100355.09;4972228;28;20038;-74
2022/05/14 07:35:36;;;;;;;8.90;6.82;;;;;;;20.23;57.99;100356.03;4971926;28;20417;-75
2022/05/14 07:38:03;;;;;;;10.82;7.43;;;;;;;20.40;56.92;100356.81;4972039;28;20031;-74
2022/05/14 07:40:32;;;;;;;15.35;8.18;;;;;;;19.87;57.23;100253.97;4972378;28;20063;-74
2022/05/14 07:43:01;;;;;;;10.73;8.68;;;;;;;20.51;57.32;100339.25;4972234;28;20030;-73
2022/05/14 07:45:32;;;;;;;15.90;10.10;;;;;;;20.56;57.71;100346.22;4972249;28;20034;-74
2022/05/14 07:48:00;;;;;;;12.70;9.40;;;;;;;20.40;57.70;100338.47;4970743;28;20027;-74
2022/05/14 07:50:26;;;;;;;14.88;9.90;;;;;;;20.49;58.08;100351.50;4972266;28;20429;-75
2022/05/14 07:52:52;;;;;;;15.27;10.45;;;;;;;20.66;57.58;100358.38;4972947;28;20034;-76
2022/05/14 07:55:18;;;;;;;16.13;9.88;;;;;;;20.74;57.93;100348.75;4971865;28;20049;-71
2022/05/14 07:57:43;;;;;;;13.23;9.77;;;;;;;20.90;57.10;100356.50;4971879;28;20469;-75
2022/05/14 08:00:09;;;;;;;12.88;9.60;;;;;;;20.96;56.63;100354.72;4976201;28;20029;-72
2022/05/14 08:02:35;;;;;;;12.00;9.98;;;;;;;21.01;58.07;100336.31;4987597;28;20022;-75
2022/05/14 08:05:07;;;;;;;12.73;9.68;;;;;;;21.04;57.07;100341.53;4990709;28;20080;-74
2022/05/14 08:07:33;;;;;;;12.43;8.80;;;;;;;21.15;56.22;100354.56;4990664;28;20023;-71
2022/05/14 08:09:59;;;;;;;12.73;8.73;;;;;;;21.07;58.47;100366.88;4989788;28;20029;-74
2022/05/14 08:12:25;;;;;;;16.30;8.45;;;;;;;20.89;58.52;100349.53;4990285;28;20141;-74
2022/05/14 08:14:51;;;;;;;8.60;7.63;;;;;;;21.09;58.66;100384.34;4982490;28;20034;-73
2022/05/14 08:17:16;;;;;;;10.25;7.07;;;;;;;21.06;58.07;100366.03;4986839;28;20022;-73
2022/05/14 08:19:42;;;;;;;9.40;7.90;;;;;;;21.06;58.53;100383.50;4990658;28;20018;-71
2022/05/14 08:24:52;;;;;;;11.55;7.00;;;;;;;21.12;61.36;100376.47;4990246;28;20081;-74
2022/05/14 08:27:18;;;;;;;13.57;7.38;;;;;;;20.85;59.18;100362.66;4973005;28;20113;-71
2022/05/14 08:29:45;;;;;;;9.43;7.35;;;;;;;20.90;61.92;100365.25;4990132;28;20475;-73
2022/05/14 08:32:11;;;;;;;10.45;7.50;;;;;;;20.88;60.10;100374.88;4980786;28;20030;-74
2022/05/14 08:34:37;;;;;;;11.50;7.35;;;;;;;20.91;60.21;100363.50;4980482;28;20043;-73
2022/05/14 08:37:03;;;;;;;11.15;7.32;;;;;;;21.08;61.49;100371.25;4984403;28;20026;-74
2022/05/14 08:39:29;;;;;;;9.93;6.53;;;;;;;21.14;60.94;100364.19;4990523;28;20034;-74
2022/05/14 08:41:56;;;;;;;10.20;6.97;;;;;;;21.11;60.57;100358.09;4990463;28;20483;-76
2022/05/14 08:44:30;;;;;;;12.50;7.32;;;;;;;20.90;59.48;100310.16;4989718;28;20125;-75
2022/05/14 08:47:00;;;;;;;10.27;6.60;;;;;;;21.13;59.81;100361.59;4990037;28;20092;-75
2022/05/14 08:50:02;;;;;;;10.13;7.25;;;;;;;21.12;59.68;100329.22;4990129;28;20026;-76
2022/05/14 08:52:29;;;;;;;10.90;7.13;;;;;;;21.23;59.26;100333.50;4968221;28;20027;-75
2022/05/14 08:55:00;;;;;;;10.98;7.20;;;;;;;21.54;58.02;100362.94;4968123;28;20042;-75
2022/05/14 08:57:26;;;;;;;8.60;5.93;;;;;;;21.52;56.80;100363.84;4968144;28;20031;-75
2022/05/14 08:59:55;;;;;;;9.32;6.75;;;;;;;21.62;57.10;100362.91;4968458;28;20461;-72
2022/05/14 09:02:43;;;;;;;9.23;6.43;;;;;;;21.61;58.30;100353.31;4968362;28;20438;-75
2022/05/14 09:05:18;;;;;;;9.80;6.28;;;;;;;21.61;56.83;100317.38;4968138;28;20026;-74
2022/05/14 09:07:45;;;;;;;13.98;6.68;;;;;;;21.91;56.55;100353.84;4968104;28;20031;-75
2022/05/14 09:10:26;;;;;;;9.77;6.38;;;;;;;22.02;56.33;100353.69;4968148;28;20165;-77
2022/05/14 09:13:02;;;;;;;8.23;6.53;;;;;;;22.00;59.65;100330.06;4967859;28;20526;-75
2022/05/14 09:15:31;;;;;;;8.93;5.45;;;;;;;22.16;55.47;100335.13;4967607;28;20438;-72
2022/05/14 09:18:04;;;;;;;;;;;;;;;22.33;57.59;100353.31;4967290;28;20046;-76
2022/05/14 09:20:40;;;;;;;7.60;5.22;;;;;;;22.33;57.14;100350.69;4969374;28;20424;-73
2022/05/14 09:23:05;;;;;;;9.52;5.25;;;;;;;22.56;56.20;100358.28;4969587;28;20039;-74
2022/05/14 09:25:36;;;;;;;8.85;5.70;;;;;;;22.26;55.83;100319.22;4972824;28;20543;-76
2022/05/14 09:28:05;;;;;;;9.00;6.00;;;;;;;22.62;56.15;100353.81;4992433;28;21709;-73
2022/05/14 09:30:51;;;;;;;6.60;5.68;;;;;;;22.70;55.54;100353.69;4975546;28;20034;-72
2022/05/14 09:33:27;;;;;;;11.30;6.57;;;;;;;22.67;55.86;100323.91;4972868;28;20762;-73
2022/05/14 09:36:01;;;;;;;12.23;7.40;;;;;;;22.88;53.87;100341.13;4973002;28;20031;-73
2022/05/14 09:38:28;;;;;;;14.52;7.75;;;;;;;23.07;51.40;100350.47;4974906;28;20027;-73
2022/05/14 09:41:06;;;;;;;9.10;5.95;;;;;;;23.13;52.46;100346.00;4973177;28;20034;-73
2022/05/14 09:43:35;;;;;;;12.05;5.68;;;;;;;23.23;53.20;100340.59;4972881;28;20042;-73
2022/05/14 09:46:10;;;;;;;11.25;4.97;;;;;;;23.23;52.27;100331.81;4972955;28;20030;-74
2022/05/14 09:48:47;;;;;;;15.38;6.22;;;;;;;23.30;49.81;100324.66;4972862;28;20424;-76
2022/05/14 09:51:27;;;;;;;12.77;5.15;;;;;;;23.41;50.20;100320.94;4972539;28;20031;-74
2022/05/14 09:53:53;;;;;;;9.35;5.20;;;;;;;23.40;50.91;100307.78;4937780;28;20057;-74
2022/05/14 09:56:30;;;;;;;8.63;4.93;;;;;;;23.47;49.71;100303.28;4973938;28;20474;-74
2022/05/14 09:59:40;;;;;;;9.35;5.00;;;;;;;23.72;48.93;100320.34;4972547;28;20122;-74
2022/05/14 10:02:15;;;;;;;8.43;4.75;;;;;;;23.99;49.78;100328.63;4931557;29;20086;-75
2022/05/14 10:04:49;;;;;;;7.35;4.22;;;;;;;24.13;49.53;100330.13;4931213;29;20047;-73
2022/05/14 10:07:22;;;;;;;7.68;4.57;;;;;;;24.34;48.02;100329.63;4929917;29;20508;-73
2022/05/14 10:10:06;;;;;;;7.25;4.43;;;;;;;24.13;46.78;100274.72;4932249;29;20027;-73
2022/05/14 10:12:38;;;;;;;7.95;4.47;;;;;;;24.35;47.06;100331.38;4929478;29;20048;-76
2022/05/14 10:15:31;;;;;;;7.35;4.70;;;;;;;24.46;47.03;100335.53;4931313;29;20424;-75
2022/05/14 10:18:32;;;;;;;8.23;4.07;;;;;;;24.77;46.66;100325.16;4931460;29;20043;-77
2022/05/14 10:21:04;;;;;;;5.82;4.07;;;;;;;24.85;46.18;100311.78;4875451;29;20869;-72
2022/05/14 10:26:59;;;;;;;8.23;4.30;;;;;;;25.11;46.07;100320.78;4876033;29;20564;-79
2022/05/14 10:29:39;;;;;;;;;;;;;;;25.13;47.34;100332.19;4875811;29;20059;-73
2022/05/14 10:32:12;;;;;;;5.57;4.07;;;;;;;25.11;46.48;100326.06;4877593;29;20383;-76
2022/05/14 10:34:46;;;;;;;7.38;4.05;;;;;;;25.06;48.00;100327.97;4893633;29;20108;-76
2022/05/14 10:37:24;;;;;;;6.03;3.88;;;;;;;25.00;46.07;100319.31;4894028;29;20120;-76
2022/05/14 10:40:05;;;;;;;7.80;4.30;;;;;;;24.75;48.69;100289.13;4893995;29;20052;-75
2022/05/14 10:42:33;;;;;;;8.15;4.32;;;;;;;24.91;46.85;100308.97;4892819;29;20556;-71
2022/05/14 10:45:14;;;;;;;9.18;4.32;;;;;;;24.96;46.66;100307.09;4892759;29;20084;-69
2022/05/14 10:47:58;;;;;;;7.43;3.85;;;;;;;24.98;46.72;100304.41;4893019;29;20119;-73
2022/05/14 10:50:23;;;;;;;5.95;3.88;;;;;;;25.04;47.71;100307.75;4885407;29;20427;-73
2022/05/14 10:52:50;;;;;;;6.80;3.92;;;;;;;25.10;47.53;100308.53;4881341;29;20033;-74
2022/05/14 10:55:45;;;;;;;6.57;3.55;;;;;;;25.16;49.11;100295.13;4881155;29;20048;-73
2022/05/14 10:58:22;;;;;;;4.97;3.80;;;;;;;25.33;50.09;100298.22;4951876;28;20039;-72
2022/05/14 11:00:47;;;;;;;8.55;3.75;;;;;;;25.50;47.97;100300.41;4990926;28;20050;-74
2022/05/14 11:03:27;;;;;;;6.65;3.42;;;;;;;25.31;45.98;100239.25;4990708;28;20030;-70
2022/05/14 11:06:02;;;;;;;5.32;3.88;;;;;;;25.72;45.39;100293.63;4990473;28;20041;-74
2022/05/14 11:08:34;;;;;;;7.15;3.55;;;;;;;25.76;45.23;100295.31;4990536;28;20025;-75
2022/05/14 11:11:10;;;;;;;5.95;3.45;;;;;;;25.81;45.48;100294.25;4991579;28;20034;-74
2022/05/14 11:13:36;;;;;;;6.25;3.53;;;;;;;25.99;46.08;100282.28;4987198;28;20564;-72
2022/05/14 11:16:11;;;;;;;5.35;3.15;;;;;;;25.97;46.76;100268.22;4977610;28;20121;-71
2022/05/14 11:18:52;;;;;;;8.68;3.83;;;;;;;26.26;45.95;100289.44;4982710;28;20034;-72
2022/05/14 11:21:22;;;;;;;4.90;3.47;;;;;;;26.40;47.11;100289.84;4982646;28;20435;-74
2022/05/14 11:23:59;;;;;;;5.82;3.20;;;;;;;26.20;44.29;100284.34;4982647;28;20469;-72
2022/05/14 11:26:25;;;;;;;5.95;3.20;;;;;;;26.27;44.02;100291.13;4981489;28;20101;-74
2022/05/14 11:29:01;;;;;;;7.85;3.58;;;;;;;26.48;47.21;100264.00;4979957;28;20022;-73
2022/05/14 11:31:31;;;;;;;5.05;3.30;;;;;;;26.66;42.47;100304.03;4982850;28;20033;-73
2022/05/14 11:33:59;;;;;;;7.55;3.67;;;;;;;26.67;42.38;100292.53;4982679;28;20033;-75
2022/05/14 11:36:34;;;;;;;7.40;3.40;;;;;;;26.82;42.63;100277.94;4985282;28;20133;-72
2022/05/14 11:39:07;;;;;;;6.70;3.90;;;;;;;27.09;40.52;100291.16;4985212;28;20524;-77
2022/05/14 11:41:35;;;;;;;12.25;3.55;;;;;;;27.36;44.29;100284.00;4981870;28;20037;-78
2022/05/14 11:44:04;;;;;;;4.93;3.30;;;;;;;27.37;40.46;100282.25;4978218;28;20038;-78
2022/05/14 11:46:50;;;;;;;8.95;3.65;;;;;;;27.65;41.25;100270.66;4974193;28;20031;-78
2022/05/14 11:49:20;;;;;;;6.70;3.75;;;;;;;27.85;40.32;100273.44;4969872;28;20129;-76